sensor_id;sensor_type;location;lat;lon;timestamp;P1;durP1;ratioP1;P2;durP2;ratioP2
7110;SDS011;3597;42.650;23.386;2022-07-04T00:00:10;2.00;;;2.00;;
7110;SDS011;3597;42.650;23.386;2022-07-04T00:02:36;1.80;;;1.80;;
7110;SDS011;3597;42.650;23.386;2022-07-04T00:05:02;1.80;;;1.80;;
7110;SDS011;3597;42.650;23.386;2022-07-04T00:07:28;1.87;;;1.87;;
7110;SDS011;3597;42.650;23.386;2022-07-04T00:09:53;2.20;;;2.20;;
7110;SDS011;3597;42.650;23.386;2022-07-04T00:12:18;2.13;;;2.13;;
7110;SDS011;3597;42.650;23.386;2022-07-04T00:14:44;2.27;;;2.27;;
7110;SDS011;3597;42.650;23.386;2022-07-04T00:17:09;1.90;;;1.90;;
7110;SDS011;3597;42.650;23.386;2022-07-04T00:19:35;2.10;;;2.10;;
7110;SDS011;3597;42.650;23.386;2022-07-04T00:22:00;2.00;;;2.00;;
7110;SDS011;3597;42.650;23.386;2022-07-04T00:24:26;2.17;;;2.17;;
7110;SDS011;3597;42.650;23.386;2022-07-04T00:26:51;2.20;;;2.20;;
7110;SDS011;3597;42.650;23.386;2022-07-04T00:29:16;2.10;;;2.10;;
7110;SDS011;3597;42.650;23.386;2022-07-04T00:31:42;2.50;;;2.50;;
7110;SDS011;3597;42.650;23.386;2022-07-04T00:34:07;2.00;;;2.00;;
7110;SDS011;3597;42.650;23.386;2022-07-04T00:36:33;1.83;;;1.83;;
7110;SDS011;3597;42.650;23.386;2022-07-04T00:38:58;1.90;;;1.90;;
7110;SDS011;3597;42.650;23.386;2022-07-04T00:41:24;2.10;;;2.10;;
7110;SDS011;3597;42.650;23.386;2022-07-04T00:44:08;2.10;;;2.10;;
7110;SDS011;3597;42.650;23.386;2022-07-04T00:46:35;2.10;;;2.10;;
7110;SDS011;3597;42.650;23.386;2022-07-04T00:49:02;1.83;;;1.83;;
7110;SDS011;3597;42.650;23.386;2022-07-04T00:51:28;1.90;;;1.90;;
7110;SDS011;3597;42.650;23.386;2022-07-04T00:53:54;2.00;;;2.00;;
7110;SDS011;3597;42.650;23.386;2022-07-04T00:56:21;2.10;;;2.10;;
7110;SDS011;3597;42.650;23.386;2022-07-04T00:58:47;2.33;;;2.33;;
7110;SDS011;3597;42.650;23.386;2022-07-04T01:01:12;1.80;;;1.80;;
7110;SDS011;3597;42.650;23.386;2022-07-04T01:03:38;2.00;;;2.00;;
7110;SDS011;3597;42.650;23.386;2022-07-04T01:06:03;2.07;;;2.07;;
7110;SDS011;3597;42.650;23.386;2022-07-04T01:08:29;2.00;;;2.00;;
7110;SDS011;3597;42.650;23.386;2022-07-04T01:10:54;1.87;;;1.87;;
7110;SDS011;3597;42.650;23.386;2022-07-04T01:13:23;1.93;;;1.93;;
7110;SDS011;3597;42.650;23.386;2022-07-04T01:15:49;1.90;;;1.90;;
7110;SDS011;3597;42.650;23.386;2022-07-04T01:18:15;2.00;;;2.00;;
7110;SDS011;3597;42.650;23.386;2022-07-04T01:20:41;1.97;;;1.97;;
7110;SDS011;3597;42.650;23.386;2022-07-04T01:23:07;1.97;;;1.97;;
7110;SDS011;3597;42.650;23.386;2022-07-04T01:25:32;2.17;;;2.17;;
7110;SDS011;3597;42.650;23.386;2022-07-04T01:28:01;1.80;;;1.80;;
7110;SDS011;3597;42.650;23.386;2022-07-04T01:30:27;1.80;;;1.80;;
7110;SDS011;3597;42.650;23.386;2022-07-04T01:32:54;1.90;;;1.90;;
7110;SDS011;3597;42.650;23.386;2022-07-04T01:35:20;1.60;;;1.60;;
7110;SDS011;3597;42.650;23.386;2022-07-04T01:37:46;1.90;;;1.90;;
7110;SDS011;3597;42.650;23.386;2022-07-04T01:40:11;1.57;;;1.57;;
7110;SDS011;3597;42.650;23.386;2022-07-04T01:42:37;1.80;;;1.80;;
7110;SDS011;3597;42.650;23.386;2022-07-04T01:45:03;1.70;;;1.70;;
7110;SDS011;3597;42.650;23.386;2022-07-04T01:47:30;1.70;;;1.70;;
7110;SDS011;3597;42.650;23.386;2022-07-04T01:49:55;1.67;;;1.67;;
7110;SDS011;3597;42.650;23.386;2022-07-04T01:52:20;1.50;;;1.50;;
7110;SDS011;3597;42.650;23.386;2022-07-04T01:54:46;1.53;;;1.53;;
7110;SDS011;3597;42.650;23.386;2022-07-04T01:57:11;1.43;;;1.43;;
7110;SDS011;3597;42.650;23.386;2022-07-04T01:59:38;1.63;;;1.63;;
7110;SDS011;3597;42.650;23.386;2022-07-04T02:02:22;1.50;;;1.50;;
7110;SDS011;3597;42.650;23.386;2022-07-04T02:04:48;1.47;;;1.47;;
7110;SDS011;3597;42.650;23.386;2022-07-04T02:07:13;1.40;;;1.40;;
7110;SDS011;3597;42.650;23.386;2022-07-04T02:09:38;1.57;;;1.57;;
7110;SDS011;3597;42.650;23.386;2022-07-04T02:12:04;1.30;;;1.30;;
7110;SDS011;3597;42.650;23.386;2022-07-04T02:14:48;1.50;;;1.50;;
7110;SDS011;3597;42.650;23.386;2022-07-04T02:17:14;1.50;;;1.50;;
7110;SDS011;3597;42.650;23.386;2022-07-04T02:19:39;1.60;;;1.60;;
7110;SDS011;3597;42.650;23.386;2022-07-04T02:22:04;1.50;;;1.50;;
7110;SDS011;3597;42.650;23.386;2022-07-04T02:24:30;1.67;;;1.67;;
7110;SDS011;3597;42.650;23.386;2022-07-04T02:26:55;1.53;;;1.53;;
7110;SDS011;3597;42.650;23.386;2022-07-04T02:29:21;1.50;;;1.50;;
7110;SDS011;3597;42.650;23.386;2022-07-04T02:31:46;1.53;;;1.53;;
7110;SDS011;3597;42.650;23.386;2022-07-04T02:34:12;1.63;;;1.63;;
7110;SDS011;3597;42.650;23.386;2022-07-04T02:36:37;1.60;;;1.60;;
7110;SDS011;3597;42.650;23.386;2022-07-04T02:39:03;1.80;;;1.80;;
7110;SDS011;3597;42.650;23.386;2022-07-04T02:41:30;1.53;;;1.53;;
7110;SDS011;3597;42.650;23.386;2022-07-04T02:43:56;1.40;;;1.40;;
7110;SDS011;3597;42.650;23.386;2022-07-04T02:46:22;1.40;;;1.40;;
7110;SDS011;3597;42.650;23.386;2022-07-04T02:48:48;1.30;;;1.30;;
7110;SDS011;3597;42.650;23.386;2022-07-04T02:51:13;1.60;;;1.60;;
7110;SDS011;3597;42.650;23.386;2022-07-04T02:53:39;1.47;;;1.47;;
7110;SDS011;3597;42.650;23.386;2022-07-04T02:56:04;1.67;;;1.67;;
7110;SDS011;3597;42.650;23.386;2022-07-04T02:58:30;1.47;;;1.47;;
7110;SDS011;3597;42.650;23.386;2022-07-04T03:00:56;1.43;;;1.43;;
7110;SDS011;3597;42.650;23.386;2022-07-04T03:03:22;1.60;;;1.57;;
7110;SDS011;3597;42.650;23.386;2022-07-04T03:05:47;1.50;;;1.50;;
7110;SDS011;3597;42.650;23.386;2022-07-04T03:08:12;1.50;;;1.50;;
7110;SDS011;3597;42.650;23.386;2022-07-04T03:10:38;1.40;;;1.40;;
7110;SDS011;3597;42.650;23.386;2022-07-04T03:13:03;1.70;;;1.60;;
7110;SDS011;3597;42.650;23.386;2022-07-04T03:15:29;1.40;;;1.40;;
7110;SDS011;3597;42.650;23.386;2022-07-04T03:17:54;1.60;;;1.60;;
7110;SDS011;3597;42.650;23.386;2022-07-04T03:20:19;1.33;;;1.33;;
7110;SDS011;3597;42.650;23.386;2022-07-04T03:22:45;1.60;;;1.60;;
7110;SDS011;3597;42.650;23.386;2022-07-04T03:25:10;1.37;;;1.37;;
7110;SDS011;3597;42.650;23.386;2022-07-04T03:27:35;1.77;;;1.77;;
7110;SDS011;3597;42.650;23.386;2022-07-04T03:30:01;1.63;;;1.63;;
7110;SDS011;3597;42.650;23.386;2022-07-04T03:32:26;1.80;;;1.80;;
7110;SDS011;3597;42.650;23.386;2022-07-04T03:34:52;1.70;;;1.70;;
7110;SDS011;3597;42.650;23.386;2022-07-04T03:37:17;1.87;;;1.87;;
7110;SDS011;3597;42.650;23.386;2022-07-04T03:39:42;1.97;;;1.97;;
7110;SDS011;3597;42.650;23.386;2022-07-04T03:42:08;1.90;;;1.90;;
7110;SDS011;3597;42.650;23.386;2022-07-04T03:44:33;2.00;;;2.00;;
7110;SDS011;3597;42.650;23.386;2022-07-04T03:46:59;2.40;;;2.40;;
7110;SDS011;3597;42.650;23.386;2022-07-04T03:49:24;2.67;;;2.67;;
7110;SDS011;3597;42.650;23.386;2022-07-04T03:51:50;2.77;;;2.77;;
7110;SDS011;3597;42.650;23.386;2022-07-04T03:54:15;3.47;;;3.33;;
7110;SDS011;3597;42.650;23.386;2022-07-04T03:56:40;3.17;;;3.07;;
7110;SDS011;3597;42.650;23.386;2022-07-04T03:59:06;3.10;;;3.10;;
7110;SDS011;3597;42.650;23.386;2022-07-04T04:01:31;2.53;;;2.53;;
7110;SDS011;3597;42.650;23.386;2022-07-04T04:03:56;2.50;;;2.50;;
7110;SDS011;3597;42.650;23.386;2022-07-04T04:06:41;2.13;;;2.13;;
7110;SDS011;3597;42.650;23.386;2022-07-04T04:09:06;2.40;;;2.40;;
7110;SDS011;3597;42.650;23.386;2022-07-04T04:11:32;1.93;;;1.93;;
7110;SDS011;3597;42.650;23.386;2022-07-04T04:13:57;2.00;;;2.00;;
7110;SDS011;3597;42.650;23.386;2022-07-04T04:16:22;1.77;;;1.77;;
7110;SDS011;3597;42.650;23.386;2022-07-04T04:18:48;1.90;;;1.90;;
7110;SDS011;3597;42.650;23.386;2022-07-04T04:21:13;1.90;;;1.90;;
7110;SDS011;3597;42.650;23.386;2022-07-04T04:23:39;1.83;;;1.83;;
7110;SDS011;3597;42.650;23.386;2022-07-04T04:26:04;1.90;;;1.90;;
7110;SDS011;3597;42.650;23.386;2022-07-04T04:28:29;2.10;;;2.10;;
7110;SDS011;3597;42.650;23.386;2022-07-04T04:30:55;1.50;;;1.50;;
7110;SDS011;3597;42.650;23.386;2022-07-04T04:33:20;2.83;;;2.63;;
7110;SDS011;3597;42.650;23.386;2022-07-04T04:35:45;1.90;;;1.90;;
7110;SDS011;3597;42.650;23.386;2022-07-04T04:38:11;1.70;;;1.70;;
7110;SDS011;3597;42.650;23.386;2022-07-04T04:40:36;1.90;;;1.90;;
7110;SDS011;3597;42.650;23.386;2022-07-04T04:43:02;1.70;;;1.70;;
7110;SDS011;3597;42.650;23.386;2022-07-04T04:45:27;2.00;;;2.00;;
7110;SDS011;3597;42.650;23.386;2022-07-04T04:47:52;1.60;;;1.60;;
7110;SDS011;3597;42.650;23.386;2022-07-04T04:50:18;2.37;;;2.37;;
7110;SDS011;3597;42.650;23.386;2022-07-04T04:52:44;2.80;;;2.80;;
7110;SDS011;3597;42.650;23.386;2022-07-04T04:55:11;2.63;;;2.63;;
7110;SDS011;3597;42.650;23.386;2022-07-04T04:57:36;2.10;;;2.10;;
7110;SDS011;3597;42.650;23.386;2022-07-04T05:00:02;1.95;;;1.95;;
7110;SDS011;3597;42.650;23.386;2022-07-04T05:02:29;1.95;;;1.95;;
7110;SDS011;3597;42.650;23.386;2022-07-04T05:04:55;1.60;;;1.60;;
7110;SDS011;3597;42.650;23.386;2022-07-04T05:07:21;1.83;;;1.83;;
7110;SDS011;3597;42.650;23.386;2022-07-04T05:09:46;2.38;;;2.38;;
7110;SDS011;3597;42.650;23.386;2022-07-04T05:12:12;2.65;;;2.65;;
7110;SDS011;3597;42.650;23.386;2022-07-04T05:14:38;2.85;;;2.75;;
7110;SDS011;3597;42.650;23.386;2022-07-04T05:17:03;2.40;;;2.40;;
7110;SDS011;3597;42.650;23.386;2022-07-04T05:19:28;2.20;;;2.20;;
7110;SDS011;3597;42.650;23.386;2022-07-04T05:21:54;2.10;;;2.10;;
7110;SDS011;3597;42.650;23.386;2022-07-04T05:24:19;2.10;;;2.10;;
7110;SDS011;3597;42.650;23.386;2022-07-04T05:26:45;2.20;;;2.20;;
7110;SDS011;3597;42.650;23.386;2022-07-04T05:29:10;2.40;;;2.40;;
7110;SDS011;3597;42.650;23.386;2022-07-04T05:31:36;2.00;;;2.00;;
7110;SDS011;3597;42.650;23.386;2022-07-04T05:34:01;1.90;;;1.90;;
7110;SDS011;3597;42.650;23.386;2022-07-04T05:36:27;1.75;;;1.75;;
7110;SDS011;3597;42.650;23.386;2022-07-04T05:38:53;2.00;;;2.00;;
7110;SDS011;3597;42.650;23.386;2022-07-04T05:41:18;3.38;;;3.38;;
7110;SDS011;3597;42.650;23.386;2022-07-04T05:43:43;2.72;;;2.72;;
7110;SDS011;3597;42.650;23.386;2022-07-04T05:46:09;2.80;;;2.80;;
7110;SDS011;3597;42.650;23.386;2022-07-04T05:48:34;2.40;;;2.40;;
7110;SDS011;3597;42.650;23.386;2022-07-04T05:51:00;2.53;;;2.53;;
7110;SDS011;3597;42.650;23.386;2022-07-04T05:53:27;2.75;;;2.67;;
7110;SDS011;3597;42.650;23.386;2022-07-04T05:55:52;1.83;;;1.83;;
7110;SDS011;3597;42.650;23.386;2022-07-04T05:58:17;2.13;;;2.10;;
7110;SDS011;3597;42.650;23.386;2022-07-04T06:00:43;2.15;;;2.15;;
7110;SDS011;3597;42.650;23.386;2022-07-04T06:03:08;1.73;;;1.73;;
7110;SDS011;3597;42.650;23.386;2022-07-04T06:05:34;1.88;;;1.83;;
7110;SDS011;3597;42.650;23.386;2022-07-04T06:08:00;1.75;;;1.75;;
7110;SDS011;3597;42.650;23.386;2022-07-04T06:10:26;2.00;;;2.00;;
7110;SDS011;3597;42.650;23.386;2022-07-04T06:12:52;2.03;;;2.03;;
7110;SDS011;3597;42.650;23.386;2022-07-04T06:15:17;2.25;;;2.25;;
7110;SDS011;3597;42.650;23.386;2022-07-04T06:17:43;1.95;;;1.95;;
7110;SDS011;3597;42.650;23.386;2022-07-04T06:20:08;1.42;;;1.42;;
7110;SDS011;3597;42.650;23.386;2022-07-04T06:22:41;1.83;;;1.73;;
7110;SDS011;3597;42.650;23.386;2022-07-04T06:25:18;1.65;;;1.55;;
7110;SDS011;3597;42.650;23.386;2022-07-04T06:27:45;2.20;;;2.20;;
7110;SDS011;3597;42.650;23.386;2022-07-04T06:30:13;1.63;;;1.63;;
7110;SDS011;3597;42.650;23.386;2022-07-04T06:32:53;1.60;;;1.60;;
7110;SDS011;3597;42.650;23.386;2022-07-04T06:35:21;1.40;;;1.40;;
7110;SDS011;3597;42.650;23.386;2022-07-04T06:38:13;1.60;;;1.60;;
7110;SDS011;3597;42.650;23.386;2022-07-04T06:40:40;1.58;;;1.58;;
7110;SDS011;3597;42.650;23.386;2022-07-04T06:43:06;1.80;;;1.80;;
7110;SDS011;3597;42.650;23.386;2022-07-04T06:45:32;1.85;;;1.75;;
7110;SDS011;3597;42.650;23.386;2022-07-04T06:48:01;1.70;;;1.70;;
7110;SDS011;3597;42.650;23.386;2022-07-04T06:50:28;1.70;;;1.70;;
7110;SDS011;3597;42.650;23.386;2022-07-04T06:52:57;1.60;;;1.60;;
7110;SDS011;3597;42.650;23.386;2022-07-04T06:55:32;1.73;;;1.73;;
7110;SDS011;3597;42.650;23.386;2022-07-04T06:57:58;1.67;;;1.67;;
7110;SDS011;3597;42.650;23.386;2022-07-04T07:00:24;1.60;;;1.60;;
7110;SDS011;3597;42.650;23.386;2022-07-04T07:02:49;1.48;;;1.48;;
7110;SDS011;3597;42.650;23.386;2022-07-04T07:05:14;1.80;;;1.80;;
7110;SDS011;3597;42.650;23.386;2022-07-04T07:07:40;1.52;;;1.52;;
7110;SDS011;3597;42.650;23.386;2022-07-04T07:10:05;1.65;;;1.65;;
7110;SDS011;3597;42.650;23.386;2022-07-04T07:12:32;1.83;;;1.83;;
7110;SDS011;3597;42.650;23.386;2022-07-04T07:14:58;1.80;;;1.80;;
7110;SDS011;3597;42.650;23.386;2022-07-04T07:17:23;1.67;;;1.67;;
7110;SDS011;3597;42.650;23.386;2022-07-04T07:19:49;1.65;;;1.65;;
7110;SDS011;3597;42.650;23.386;2022-07-04T07:22:14;1.90;;;1.90;;
7110;SDS011;3597;42.650;23.386;2022-07-04T07:24:40;1.50;;;1.50;;
7110;SDS011;3597;42.650;23.386;2022-07-04T07:27:06;1.67;;;1.67;;
7110;SDS011;3597;42.650;23.386;2022-07-04T07:29:31;1.70;;;1.70;;
7110;SDS011;3597;42.650;23.386;2022-07-04T07:31:57;1.75;;;1.75;;
7110;SDS011;3597;42.650;23.386;2022-07-04T07:34:23;1.85;;;1.85;;
7110;SDS011;3597;42.650;23.386;2022-07-04T07:36:49;2.40;;;2.40;;
7110;SDS011;3597;42.650;23.386;2022-07-04T07:39:14;1.60;;;1.60;;
7110;SDS011;3597;42.650;23.386;2022-07-04T07:41:39;1.80;;;1.80;;
7110;SDS011;3597;42.650;23.386;2022-07-04T07:44:05;1.77;;;1.77;;
7110;SDS011;3597;42.650;23.386;2022-07-04T07:46:31;1.77;;;1.77;;
7110;SDS011;3597;42.650;23.386;2022-07-04T07:48:57;1.92;;;1.85;;
7110;SDS011;3597;42.650;23.386;2022-07-04T07:51:23;2.20;;;2.20;;
7110;SDS011;3597;42.650;23.386;2022-07-04T07:53:48;1.55;;;1.55;;
7110;SDS011;3597;42.650;23.386;2022-07-04T07:56:13;1.52;;;1.52;;
7110;SDS011;3597;42.650;23.386;2022-07-04T07:58:39;2.00;;;2.00;;
7110;SDS011;3597;42.650;23.386;2022-07-04T08:01:04;2.03;;;2.03;;
7110;SDS011;3597;42.650;23.386;2022-07-04T08:03:29;1.92;;;1.92;;
7110;SDS011;3597;42.650;23.386;2022-07-04T08:06:13;2.75;;;2.65;;
7110;SDS011;3597;42.650;23.386;2022-07-04T08:08:40;2.80;;;2.80;;
7110;SDS011;3597;42.650;23.386;2022-07-04T08:11:06;1.95;;;1.95;;
7110;SDS011;3597;42.650;23.386;2022-07-04T08:13:31;2.10;;;2.10;;
7110;SDS011;3597;42.650;23.386;2022-07-04T08:15:57;2.38;;;2.38;;
7110;SDS011;3597;42.650;23.386;2022-07-04T08:18:23;2.40;;;2.40;;
7110;SDS011;3597;42.650;23.386;2022-07-04T08:20:48;2.70;;;2.70;;
7110;SDS011;3597;42.650;23.386;2022-07-04T08:23:15;2.80;;;2.80;;
7110;SDS011;3597;42.650;23.386;2022-07-04T08:25:40;3.00;;;3.00;;
7110;SDS011;3597;42.650;23.386;2022-07-04T08:28:06;2.85;;;2.85;;
7110;SDS011;3597;42.650;23.386;2022-07-04T08:30:31;3.55;;;3.45;;
7110;SDS011;3597;42.650;23.386;2022-07-04T08:32:57;3.60;;;3.53;;
7110;SDS011;3597;42.650;23.386;2022-07-04T08:35:23;3.60;;;3.60;;
7110;SDS011;3597;42.650;23.386;2022-07-04T08:37:48;3.55;;;3.55;;
7110;SDS011;3597;42.650;23.386;2022-07-04T08:40:18;3.72;;;3.72;;
7110;SDS011;3597;42.650;23.386;2022-07-04T08:42:47;3.95;;;3.90;;
7110;SDS011;3597;42.650;23.386;2022-07-04T08:45:13;4.05;;;4.05;;
7110;SDS011;3597;42.650;23.386;2022-07-04T08:47:40;3.83;;;3.72;;
7110;SDS011;3597;42.650;23.386;2022-07-04T08:53:15;4.10;;;4.05;;
7110;SDS011;3597;42.650;23.386;2022-07-04T08:55:43;4.15;;;4.15;;
7110;SDS011;3597;42.650;23.386;2022-07-04T08:58:29;2.90;;;2.90;;
7110;SDS011;3597;42.650;23.386;2022-07-04T09:00:58;2.92;;;2.92;;
7110;SDS011;3597;42.650;23.386;2022-07-04T09:03:25;2.30;;;2.30;;
7110;SDS011;3597;42.650;23.386;2022-07-04T09:05:51;3.00;;;3.00;;
7110;SDS011;3597;42.650;23.386;2022-07-04T09:08:18;3.05;;;3.05;;
7110;SDS011;3597;42.650;23.386;2022-07-04T09:10:43;3.40;;;3.40;;
7110;SDS011;3597;42.650;23.386;2022-07-04T09:13:09;3.40;;;3.40;;
7110;SDS011;3597;42.650;23.386;2022-07-04T09:15:40;3.05;;;3.05;;
7110;SDS011;3597;42.650;23.386;2022-07-04T09:18:06;3.30;;;3.30;;
7110;SDS011;3597;42.650;23.386;2022-07-04T09:20:32;3.30;;;3.30;;
7110;SDS011;3597;42.650;23.386;2022-07-04T09:22:58;3.35;;;3.33;;
7110;SDS011;3597;42.650;23.386;2022-07-04T09:25:24;3.00;;;3.00;;
7110;SDS011;3597;42.650;23.386;2022-07-04T09:27:51;2.90;;;2.90;;
7110;SDS011;3597;42.650;23.386;2022-07-04T09:30:21;3.53;;;3.47;;
7110;SDS011;3597;42.650;23.386;2022-07-04T09:32:54;3.60;;;3.60;;
7110;SDS011;3597;42.650;23.386;2022-07-04T09:35:25;3.63;;;3.63;;
7110;SDS011;3597;42.650;23.386;2022-07-04T09:37:56;3.60;;;3.58;;
7110;SDS011;3597;42.650;23.386;2022-07-04T09:40:25;3.38;;;3.38;;
7110;SDS011;3597;42.650;23.386;2022-07-04T09:42:52;3.42;;;3.42;;
7110;SDS011;3597;42.650;23.386;2022-07-04T09:45:19;2.90;;;2.90;;
7110;SDS011;3597;42.650;23.386;2022-07-04T09:47:48;2.92;;;2.90;;
7110;SDS011;3597;42.650;23.386;2022-07-04T09:50:17;2.80;;;2.80;;
7110;SDS011;3597;42.650;23.386;2022-07-04T09:55:48;2.33;;;2.33;;
7110;SDS011;3597;42.650;23.386;2022-07-04T09:58:07;2.45;;;2.45;;
7110;SDS011;3597;42.650;23.386;2022-07-04T10:00:34;2.15;;;2.15;;
7110;SDS011;3597;42.650;23.386;2022-07-04T10:05:48;2.00;;;2.00;;
7110;SDS011;3597;42.650;23.386;2022-07-04T10:08:33;2.92;;;2.83;;
7110;SDS011;3597;42.650;23.386;2022-07-04T10:11:00;2.50;;;2.50;;
7110;SDS011;3597;42.650;23.386;2022-07-04T10:13:27;1.95;;;1.95;;
7110;SDS011;3597;42.650;23.386;2022-07-04T10:15:52;2.05;;;2.05;;
7110;SDS011;3597;42.650;23.386;2022-07-04T10:18:18;2.10;;;2.10;;
7110;SDS011;3597;42.650;23.386;2022-07-04T10:20:45;2.15;;;2.15;;
7110;SDS011;3597;42.650;23.386;2022-07-04T10:23:11;2.03;;;2.03;;
7110;SDS011;3597;42.650;23.386;2022-07-04T10:25:36;2.20;;;2.20;;
7110;SDS011;3597;42.650;23.386;2022-07-04T10:28:02;2.10;;;2.10;;
7110;SDS011;3597;42.650;23.386;2022-07-04T10:30:28;2.15;;;2.15;;
7110;SDS011;3597;42.650;23.386;2022-07-04T10:32:56;2.00;;;2.00;;
7110;SDS011;3597;42.650;23.386;2022-07-04T10:38:20;2.10;;;2.10;;
7110;SDS011;3597;42.650;23.386;2022-07-04T10:40:50;2.13;;;2.13;;
7110;SDS011;3597;42.650;23.386;2022-07-04T10:54:31;2.47;;;2.47;;
7110;SDS011;3597;42.650;23.386;2022-07-04T10:59:34;2.38;;;2.38;;
7110;SDS011;3597;42.650;23.386;2022-07-04T11:07:15;2.28;;;2.28;;
7110;SDS011;3597;42.650;23.386;2022-07-04T11:09:41;2.63;;;2.63;;
7110;SDS011;3597;42.650;23.386;2022-07-04T11:12:08;2.58;;;2.58;;
7110;SDS011;3597;42.650;23.386;2022-07-04T11:17:10;2.63;;;2.63;;
7110;SDS011;3597;42.650;23.386;2022-07-04T11:19:39;2.70;;;2.70;;
7110;SDS011;3597;42.650;23.386;2022-07-04T11:22:06;2.40;;;2.40;;
7110;SDS011;3597;42.650;23.386;2022-07-04T11:24:32;2.08;;;2.08;;
7110;SDS011;3597;42.650;23.386;2022-07-04T11:26:58;2.40;;;2.40;;
7110;SDS011;3597;42.650;23.386;2022-07-04T11:29:24;2.10;;;2.10;;
7110;SDS011;3597;42.650;23.386;2022-07-04T11:31:50;2.42;;;2.42;;
7110;SDS011;3597;42.650;23.386;2022-07-04T11:34:16;2.60;;;2.60;;
7110;SDS011;3597;42.650;23.386;2022-07-04T11:36:42;3.03;;;3.03;;
7110;SDS011;3597;42.650;23.386;2022-07-04T11:39:11;2.90;;;2.90;;
7110;SDS011;3597;42.650;23.386;2022-07-04T11:41:41;3.15;;;2.95;;
7110;SDS011;3597;42.650;23.386;2022-07-04T11:44:27;3.00;;;3.00;;
7110;SDS011;3597;42.650;23.386;2022-07-04T11:49:53;2.78;;;2.78;;
7110;SDS011;3597;42.650;23.386;2022-07-04T11:52:22;2.33;;;2.33;;
7110;SDS011;3597;42.650;23.386;2022-07-04T11:54:50;2.50;;;2.50;;
7110;SDS011;3597;42.650;23.386;2022-07-04T11:57:20;2.65;;;2.65;;
7110;SDS011;3597;42.650;23.386;2022-07-04T12:02:18;2.28;;;2.28;;
7110;SDS011;3597;42.650;23.386;2022-07-04T12:04:44;2.30;;;2.30;;
7110;SDS011;3597;42.650;23.386;2022-07-04T12:07:13;2.55;;;2.55;;
7110;SDS011;3597;42.650;23.386;2022-07-04T12:09:41;3.03;;;3.03;;
7110;SDS011;3597;42.650;23.386;2022-07-04T12:12:07;2.60;;;2.60;;
7110;SDS011;3597;42.650;23.386;2022-07-04T12:14:33;2.38;;;2.38;;
7110;SDS011;3597;42.650;23.386;2022-07-04T12:17:16;2.45;;;2.45;;
7110;SDS011;3597;42.650;23.386;2022-07-04T12:22:25;3.00;;;3.00;;
7110;SDS011;3597;42.650;23.386;2022-07-04T12:25:01;3.92;;;3.83;;
7110;SDS011;3597;42.650;23.386;2022-07-04T12:27:28;3.80;;;3.80;;
7110;SDS011;3597;42.650;23.386;2022-07-04T12:29:54;3.83;;;3.83;;
7110;SDS011;3597;42.650;23.386;2022-07-04T12:32:20;3.75;;;3.75;;
7110;SDS011;3597;42.650;23.386;2022-07-04T12:34:45;3.30;;;3.15;;
7110;SDS011;3597;42.650;23.386;2022-07-04T12:37:12;2.47;;;2.47;;
7110;SDS011;3597;42.650;23.386;2022-07-04T12:39:39;2.33;;;2.33;;
7110;SDS011;3597;42.650;23.386;2022-07-04T12:42:06;2.55;;;2.53;;
7110;SDS011;3597;42.650;23.386;2022-07-04T12:44:33;2.30;;;2.30;;
7110;SDS011;3597;42.650;23.386;2022-07-04T12:46:59;2.47;;;2.47;;
7110;SDS011;3597;42.650;23.386;2022-07-04T12:49:24;2.15;;;2.15;;
7110;SDS011;3597;42.650;23.386;2022-07-04T12:51:50;1.95;;;1.95;;
7110;SDS011;3597;42.650;23.386;2022-07-04T12:54:16;2.58;;;2.58;;
7110;SDS011;3597;42.650;23.386;2022-07-04T12:56:45;2.42;;;2.42;;
7110;SDS011;3597;42.650;23.386;2022-07-04T12:59:15;2.90;;;2.90;;
7110;SDS011;3597;42.650;23.386;2022-07-04T13:01:44;2.60;;;2.60;;
7110;SDS011;3597;42.650;23.386;2022-07-04T13:04:10;3.28;;;3.25;;
7110;SDS011;3597;42.650;23.386;2022-07-04T13:06:36;2.80;;;2.80;;
7110;SDS011;3597;42.650;23.386;2022-07-04T13:09:03;3.40;;;3.30;;
7110;SDS011;3597;42.650;23.386;2022-07-04T13:11:29;3.58;;;3.58;;
7110;SDS011;3597;42.650;23.386;2022-07-04T13:14:12;3.83;;;3.83;;
7110;SDS011;3597;42.650;23.386;2022-07-04T13:16:38;4.60;;;4.50;;
7110;SDS011;3597;42.650;23.386;2022-07-04T13:19:03;4.60;;;4.60;;
7110;SDS011;3597;42.650;23.386;2022-07-04T13:21:29;5.22;;;5.13;;
7110;SDS011;3597;42.650;23.386;2022-07-04T13:23:54;5.80;;;5.70;;
7110;SDS011;3597;42.650;23.386;2022-07-04T13:26:20;5.88;;;5.78;;
7110;SDS011;3597;42.650;23.386;2022-07-04T13:28:45;5.43;;;5.32;;
7110;SDS011;3597;42.650;23.386;2022-07-04T13:31:11;5.05;;;4.95;;
7110;SDS011;3597;42.650;23.386;2022-07-04T13:33:36;4.82;;;4.80;;
7110;SDS011;3597;42.650;23.386;2022-07-04T13:36:02;5.13;;;5.03;;
7110;SDS011;3597;42.650;23.386;2022-07-04T13:38:28;5.75;;;5.65;;
7110;SDS011;3597;42.650;23.386;2022-07-04T13:40:54;6.53;;;6.32;;
7110;SDS011;3597;42.650;23.386;2022-07-04T13:43:22;6.40;;;6.30;;
7110;SDS011;3597;42.650;23.386;2022-07-04T13:45:47;5.95;;;5.85;;
7110;SDS011;3597;42.650;23.386;2022-07-04T13:48:14;6.18;;;6.07;;
7110;SDS011;3597;42.650;23.386;2022-07-04T13:50:39;5.88;;;5.78;;
7110;SDS011;3597;42.650;23.386;2022-07-04T13:53:05;4.93;;;4.82;;
7110;SDS011;3597;42.650;23.386;2022-07-04T13:55:31;5.47;;;5.38;;
7110;SDS011;3597;42.650;23.386;2022-07-04T13:57:57;5.40;;;5.30;;
7110;SDS011;3597;42.650;23.386;2022-07-04T14:00:23;6.10;;;6.00;;
7110;SDS011;3597;42.650;23.386;2022-07-04T14:02:49;6.72;;;6.63;;
7110;SDS011;3597;42.650;23.386;2022-07-04T14:05:14;6.38;;;6.28;;
7110;SDS011;3597;42.650;23.386;2022-07-04T14:07:39;7.03;;;6.93;;
7110;SDS011;3597;42.650;23.386;2022-07-04T14:10:05;7.70;;;7.53;;
7110;SDS011;3597;42.650;23.386;2022-07-04T14:12:31;8.05;;;7.95;;
7110;SDS011;3597;42.650;23.386;2022-07-04T14:14:56;7.32;;;7.22;;
7110;SDS011;3597;42.650;23.386;2022-07-04T14:17:22;7.10;;;7.00;;
7110;SDS011;3597;42.650;23.386;2022-07-04T14:19:47;7.47;;;7.30;;
7110;SDS011;3597;42.650;23.386;2022-07-04T14:22:12;11.27;;;10.98;;
7110;SDS011;3597;42.650;23.386;2022-07-04T14:24:38;3.60;;;3.47;;
7110;SDS011;3597;42.650;23.386;2022-07-04T14:27:03;4.03;;;4.03;;
7110;SDS011;3597;42.650;23.386;2022-07-04T14:29:29;3.92;;;3.92;;
7110;SDS011;3597;42.650;23.386;2022-07-04T14:31:54;4.60;;;4.50;;
7110;SDS011;3597;42.650;23.386;2022-07-04T14:34:20;4.28;;;4.28;;
7110;SDS011;3597;42.650;23.386;2022-07-04T14:36:45;4.10;;;4.10;;
7110;SDS011;3597;42.650;23.386;2022-07-04T14:39:10;4.20;;;4.18;;
7110;SDS011;3597;42.650;23.386;2022-07-04T14:41:36;3.80;;;3.80;;
7110;SDS011;3597;42.650;23.386;2022-07-04T14:44:01;3.67;;;3.67;;
7110;SDS011;3597;42.650;23.386;2022-07-04T14:46:27;4.20;;;4.20;;
7110;SDS011;3597;42.650;23.386;2022-07-04T14:48:53;3.88;;;3.78;;
7110;SDS011;3597;42.650;23.386;2022-07-04T14:51:18;3.60;;;3.60;;
7110;SDS011;3597;42.650;23.386;2022-07-04T14:53:44;3.90;;;3.90;;
7110;SDS011;3597;42.650;23.386;2022-07-04T14:56:09;4.00;;;4.00;;
7110;SDS011;3597;42.650;23.386;2022-07-04T14:58:34;4.20;;;4.20;;
7110;SDS011;3597;42.650;23.386;2022-07-04T15:01:00;4.35;;;4.35;;
7110;SDS011;3597;42.650;23.386;2022-07-04T15:03:25;4.75;;;4.75;;
7110;SDS011;3597;42.650;23.386;2022-07-04T15:05:50;4.68;;;4.60;;
7110;SDS011;3597;42.650;23.386;2022-07-04T15:08:16;4.90;;;4.80;;
7110;SDS011;3597;42.650;23.386;2022-07-04T15:10:42;4.45;;;4.45;;
7110;SDS011;3597;42.650;23.386;2022-07-04T15:13:07;5.40;;;5.30;;
7110;SDS011;3597;42.650;23.386;2022-07-04T15:15:33;5.85;;;5.65;;
7110;SDS011;3597;42.650;23.386;2022-07-04T15:17:58;10.93;;;10.63;;
7110;SDS011;3597;42.650;23.386;2022-07-04T15:20:24;17.88;;;17.08;;
7110;SDS011;3597;42.650;23.386;2022-07-04T15:23:08;5.50;;;5.40;;
7110;SDS011;3597;42.650;23.386;2022-07-04T15:25:52;6.30;;;6.20;;
7110;SDS011;3597;42.650;23.386;2022-07-04T15:28:17;6.68;;;6.57;;
7110;SDS011;3597;42.650;23.386;2022-07-04T15:30:42;7.00;;;6.90;;
7110;SDS011;3597;42.650;23.386;2022-07-04T15:33:08;8.85;;;8.73;;
7110;SDS011;3597;42.650;23.386;2022-07-04T15:35:39;8.93;;;8.73;;
7110;SDS011;3597;42.650;23.386;2022-07-04T15:38:05;9.38;;;9.18;;